sensor_id;sensor_type;location;lat;lon;timestamp;temperature;humidity
45339;DHT22;31071;51.478;5.710;2023-10-13T00:00:34;17.00;99.90
45339;DHT22;31071;51.478;5.710;2023-10-13T00:03:04;16.90;99.90
45339;DHT22;31071;51.478;5.710;2023-10-13T00:05:31;16.90;99.90
45339;DHT22;31071;51.478;5.710;2023-10-13T00:08:01;16.90;99.90
45339;DHT22;31071;51.478;5.710;2023-10-13T00:10:31;16.90;99.90
45339;DHT22;31071;51.478;5.710;2023-10-13T00:12:59;16.90;99.90
45339;DHT22;31071;51.478;5.710;2023-10-13T00:15:43;16.90;99.90
45339;DHT22;31071;51.478;5.710;2023-10-13T00:18:32;17.00;99.90
45339;DHT22;31071;51.478;5.710;2023-10-13T00:21:03;17.00;99.90
45339;DHT22;31071;51.478;5.710;2023-10-13T00:23:41;17.00;99.90
45339;DHT22;31071;51.478;5.710;2023-10-13T00:26:24;17.00;99.90
45339;DHT22;31071;51.478;5.710;2023-10-13T00:28:53;17.00;99.90
45339;DHT22;31071;51.478;5.710;2023-10-13T00:31:38;18.50;99.90
45339;DHT22;31071;51.478;5.710;2023-10-13T00:34:08;17.00;99.90
45339;DHT22;31071;51.478;5.710;2023-10-13T00:36:38;19.00;99.90
45339;DHT22;31071;51.478;5.710;2023-10-13T00:39:27;17.00;99.90
45339;DHT22;31071;51.478;5.710;2023-10-13T00:41:54;17.00;99.90
45339;DHT22;31071;51.478;5.710;2023-10-13T00:44:24;17.00;99.90
45339;DHT22;31071;51.478;5.710;2023-10-13T00:47:10;16.90;99.90
45339;DHT22;31071;51.478;5.710;2023-10-13T00:49:43;17.00;99.90
45339;DHT22;31071;51.478;5.710;2023-10-13T00:52:12;17.00;99.90
45339;DHT22;31071;51.478;5.710;2023-10-13T00:54:41;17.00;99.90
45339;DHT22;31071;51.478;5.710;2023-10-13T00:57:15;17.00;99.90
45339;DHT22;31071;51.478;5.710;2023-10-13T00:59:56;17.00;99.90
45339;DHT22;31071;51.478;5.710;2023-10-13T01:02:25;17.00;99.90
45339;DHT22;31071;51.478;5.710;2023-10-13T01:05:04;17.00;99.90
45339;DHT22;31071;51.478;5.710;2023-10-13T01:07:30;17.00;99.90
45339;DHT22;31071;51.478;5.710;2023-10-13T01:09:55;17.40;99.90
45339;DHT22;31071;51.478;5.710;2023-10-13T01:12:21;17.00;99.90
45339;DHT22;31071;51.478;5.710;2023-10-13T01:14:50;18.00;99.90
45339;DHT22;31071;51.478;5.710;2023-10-13T01:17:16;17.00;99.90
45339;DHT22;31071;51.478;5.710;2023-10-13T01:19:42;17.00;99.90
45339;DHT22;31071;51.478;5.710;2023-10-13T01:22:09;17.00;99.90
45339;DHT22;31071;51.478;5.710;2023-10-13T01:24:35;17.00;99.90
45339;DHT22;31071;51.478;5.710;2023-10-13T01:27:04;17.00;99.90
45339;DHT22;31071;51.478;5.710;2023-10-13T01:29:51;17.10;99.90
45339;DHT22;31071;51.478;5.710;2023-10-13T01:32:22;17.00;99.90
45339;DHT22;31071;51.478;5.710;2023-10-13T01:34:48;17.00;99.90
45339;DHT22;31071;51.478;5.710;2023-10-13T01:37:14;17.30;99.90
45339;DHT22;31071;51.478;5.710;2023-10-13T01:39:41;16.90;99.90
45339;DHT22;31071;51.478;5.710;2023-10-13T01:42:07;17.00;99.90
45339;DHT22;31071;51.478;5.710;2023-10-13T01:44:33;17.00;99.90
45339;DHT22;31071;51.478;5.710;2023-10-13T01:47:00;17.00;99.90
45339;DHT22;31071;51.478;5.710;2023-10-13T01:49:32;17.10;99.90
45339;DHT22;31071;51.478;5.710;2023-10-13T01:52:15;17.00;99.90
45339;DHT22;31071;51.478;5.710;2023-10-13T01:54:48;17.00;99.90
45339;DHT22;31071;51.478;5.710;2023-10-13T01:57:16;17.10;99.90
45339;DHT22;31071;51.478;5.710;2023-10-13T01:59:47;17.00;99.90
45339;DHT22;31071;51.478;5.710;2023-10-13T02:02:14;17.00;99.90
45339;DHT22;31071;51.478;5.710;2023-10-13T02:04:41;17.00;99.90
45339;DHT22;31071;51.478;5.710;2023-10-13T02:07:20;17.10;99.90
45339;DHT22;31071;51.478;5.710;2023-10-13T02:09:46;17.00;99.90
45339;DHT22;31071;51.478;5.710;2023-10-13T02:12:12;17.20;99.90
45339;DHT22;31071;51.478;5.710;2023-10-13T02:14:40;17.00;99.90
45339;DHT22;31071;51.478;5.710;2023-10-13T02:17:07;17.10;99.90
45339;DHT22;31071;51.478;5.710;2023-10-13T02:19:42;17.50;99.90
45339;DHT22;31071;51.478;5.710;2023-10-13T02:22:12;17.10;99.90
45339;DHT22;31071;51.478;5.710;2023-10-13T02:24:49;18.00;99.90
45339;DHT22;31071;51.478;5.710;2023-10-13T02:27:17;17.10;99.90
45339;DHT22;31071;51.478;5.710;2023-10-13T02:29:43;17.50;99.90
45339;DHT22;31071;51.478;5.710;2023-10-13T02:32:11;17.10;99.90
45339;DHT22;31071;51.478;5.710;2023-10-13T02:34:46;17.20;99.90
45339;DHT22;31071;51.478;5.710;2023-10-13T02:37:13;17.20;99.90
45339;DHT22;31071;51.478;5.710;2023-10-13T02:39:39;17.10;99.90
45339;DHT22;31071;51.478;5.710;2023-10-13T02:42:09;18.00;99.90
45339;DHT22;31071;51.478;5.710;2023-10-13T02:44:50;17.10;99.90
45339;DHT22;31071;51.478;5.710;2023-10-13T02:47:16;17.10;99.90
45339;DHT22;31071;51.478;5.710;2023-10-13T02:49:44;17.10;99.90
45339;DHT22;31071;51.478;5.710;2023-10-13T02:52:11;17.10;99.90
45339;DHT22;31071;51.478;5.710;2023-10-13T02:54:38;16.90;99.90
45339;DHT22;31071;51.478;5.710;2023-10-13T02:57:13;17.10;99.90
45339;DHT22;31071;51.478;5.710;2023-10-13T02:59:41;18.30;99.90
45339;DHT22;31071;51.478;5.710;2023-10-13T03:02:15;17.10;99.90
45339;DHT22;31071;51.478;5.710;2023-10-13T03:05:07;17.10;99.90
45339;DHT22;31071;51.478;5.710;2023-10-13T03:07:39;17.10;99.90
45339;DHT22;31071;51.478;5.710;2023-10-13T03:10:08;17.20;99.90
45339;DHT22;31071;51.478;5.710;2023-10-13T03:12:38;17.10;99.90
45339;DHT22;31071;51.478;5.710;2023-10-13T03:15:04;17.10;99.90
45339;DHT22;31071;51.478;5.710;2023-10-13T03:17:44;17.10;99.90
45339;DHT22;31071;51.478;5.710;2023-10-13T03:20:14;17.90;99.90
45339;DHT22;31071;51.478;5.710;2023-10-13T03:22:42;17.10;99.90
45339;DHT22;31071;51.478;5.710;2023-10-13T03:25:14;17.90;99.90
45339;DHT22;31071;51.478;5.710;2023-10-13T03:27:56;17.20;99.90
45339;DHT22;31071;51.478;5.710;2023-10-13T03:30:22;17.20;99.90
45339;DHT22;31071;51.478;5.710;2023-10-13T03:32:55;17.20;99.90
45339;DHT22;31071;51.478;5.710;2023-10-13T03:35:22;17.30;99.90
45339;DHT22;31071;51.478;5.710;2023-10-13T03:37:51;17.20;99.90
45339;DHT22;31071;51.478;5.710;2023-10-13T03:40:17;18.20;99.90
45339;DHT22;31071;51.478;5.710;2023-10-13T03:45:34;18.10;99.90
45339;DHT22;31071;51.478;5.710;2023-10-13T03:48:25;18.00;99.90
45339;DHT22;31071;51.478;5.710;2023-10-13T03:50:51;17.30;99.90
45339;DHT22;31071;51.478;5.710;2023-10-13T03:53:43;17.60;99.90
45339;DHT22;31071;51.478;5.710;2023-10-13T03:56:28;18.20;99.90
45339;DHT22;31071;51.478;5.710;2023-10-13T03:59:14;17.30;99.90
45339;DHT22;31071;51.478;5.710;2023-10-13T04:01:40;17.70;99.90
45339;DHT22;31071;51.478;5.710;2023-10-13T04:04:08;17.30;99.90
45339;DHT22;31071;51.478;5.710;2023-10-13T04:06:37;17.40;99.90
45339;DHT22;31071;51.478;5.710;2023-10-13T04:09:18;17.40;99.90
45339;DHT22;31071;51.478;5.710;2023-10-13T04:11:58;17.40;99.90
45339;DHT22;31071;51.478;5.710;2023-10-13T04:14:30;18.40;99.90
45339;DHT22;31071;51.478;5.710;2023-10-13T04:17:16;17.40;99.90
45339;DHT22;31071;51.478;5.710;2023-10-13T04:19:48;17.40;99.90
45339;DHT22;31071;51.478;5.710;2023-10-13T04:22:32;17.40;99.90
45339;DHT22;31071;51.478;5.710;2023-10-13T04:27:58;17.50;99.90
45339;DHT22;31071;51.478;5.710;2023-10-13T04:30:49;17.50;99.90
45339;DHT22;31071;51.478;5.710;2023-10-13T04:33:30;17.60;99.90
45339;DHT22;31071;51.478;5.710;2023-10-13T04:36:13;17.60;99.90
45339;DHT22;31071;51.478;5.710;2023-10-13T04:38:55;17.90;99.90
45339;DHT22;31071;51.478;5.710;2023-10-13T04:44:00;17.60;99.90
45339;DHT22;31071;51.478;5.710;2023-10-13T04:46:45;17.60;99.90
45339;DHT22;31071;51.478;5.710;2023-10-13T04:49:13;17.70;99.90
45339;DHT22;31071;51.478;5.710;2023-10-13T04:51:59;17.90;99.90
45339;DHT22;31071;51.478;5.710;2023-10-13T04:54:36;17.60;99.90
45339;DHT22;31071;51.478;5.710;2023-10-13T04:57:17;17.60;99.90
45339;DHT22;31071;51.478;5.710;2023-10-13T04:59:53;18.70;99.90
45339;DHT22;31071;51.478;5.710;2023-10-13T05:02:41;17.60;99.90
45339;DHT22;31071;51.478;5.710;2023-10-13T05:05:14;17.60;99.90
45339;DHT22;31071;51.478;5.710;2023-10-13T05:07:40;17.60;99.90
45339;DHT22;31071;51.478;5.710;2023-10-13T05:10:25;17.60;99.90
45339;DHT22;31071;51.478;5.710;2023-10-13T05:13:09;17.70;99.90
45339;DHT22;31071;51.478;5.710;2023-10-13T05:15:53;17.70;99.90
45339;DHT22;31071;51.478;5.710;2023-10-13T05:18:37;17.70;99.90
45339;DHT22;31071;51.478;5.710;2023-10-13T05:21:22;17.70;99.90
45339;DHT22;31071;51.478;5.710;2023-10-13T05:24:07;18.10;99.90
45339;DHT22;31071;51.478;5.710;2023-10-13T05:26:52;17.70;99.90
45339;DHT22;31071;51.478;5.710;2023-10-13T05:29:44;18.30;99.90
45339;DHT22;31071;51.478;5.710;2023-10-13T05:32:28;17.70;99.90
45339;DHT22;31071;51.478;5.710;2023-10-13T05:35:13;18.80;99.90
45339;DHT22;31071;51.478;5.710;2023-10-13T05:37:57;18.00;99.90
45339;DHT22;31071;51.478;5.710;2023-10-13T05:41:02;17.70;99.90
45339;DHT22;31071;51.478;5.710;2023-10-13T05:43:47;17.70;99.90
45339;DHT22;31071;51.478;5.710;2023-10-13T05:46:31;17.70;99.90
45339;DHT22;31071;51.478;5.710;2023-10-13T05:49:04;18.60;99.90
45339;DHT22;31071;51.478;5.710;2023-10-13T05:51:43;17.70;99.90
45339;DHT22;31071;51.478;5.710;2023-10-13T05:54:13;17.70;99.90
45339;DHT22;31071;51.478;5.710;2023-10-13T05:56:43;18.00;99.90
45339;DHT22;31071;51.478;5.710;2023-10-13T05:59:28;17.70;99.90
45339;DHT22;31071;51.478;5.710;2023-10-13T06:02:16;17.70;99.90
45339;DHT22;31071;51.478;5.710;2023-10-13T06:05:07;17.70;99.90
45339;DHT22;31071;51.478;5.710;2023-10-13T06:07:52;17.70;99.90
45339;DHT22;31071;51.478;5.710;2023-10-13T06:10:37;17.70;99.90
45339;DHT22;31071;51.478;5.710;2023-10-13T06:13:22;17.70;99.90
45339;DHT22;31071;51.478;5.710;2023-10-13T06:16:07;17.70;99.90
45339;DHT22;31071;51.478;5.710;2023-10-13T06:18:52;17.70;99.90
45339;DHT22;31071;51.478;5.710;2023-10-13T06:21:36;17.70;99.90
45339;DHT22;31071;51.478;5.710;2023-10-13T06:24:20;17.70;99.90
45339;DHT22;31071;51.478;5.710;2023-10-13T06:27:04;17.70;99.90
45339;DHT22;31071;51.478;5.710;2023-10-13T06:29:48;17.70;99.90
45339;DHT22;31071;51.478;5.710;2023-10-13T06:32:14;17.70;99.90
45339;DHT22;31071;51.478;5.710;2023-10-13T06:34:42;17.70;99.90
45339;DHT22;31071;51.478;5.710;2023-10-13T06:37:17;17.80;99.90
45339;DHT22;31071;51.478;5.710;2023-10-13T06:39:50;17.80;99.90
45339;DHT22;31071;51.478;5.710;2023-10-13T06:42:16;17.70;99.90
45339;DHT22;31071;51.478;5.710;2023-10-13T06:44:48;17.80;99.90
45339;DHT22;31071;51.478;5.710;2023-10-13T06:47:13;17.70;99.90
45339;DHT22;31071;51.478;5.710;2023-10-13T06:49:40;17.70;99.90
45339;DHT22;31071;51.478;5.710;2023-10-13T06:55:46;16.70;99.90
45339;DHT22;31071;51.478;5.710;2023-10-13T07:12:59;17.80;99.90
45339;DHT22;31071;51.478;5.710;2023-10-13T07:15:26;17.90;99.90
45339;DHT22;31071;51.478;5.710;2023-10-13T07:17:55;17.90;99.90
45339;DHT22;31071;51.478;5.710;2023-10-13T07:20:25;17.90;99.90
45339;DHT22;31071;51.478;5.710;2023-10-13T07:22:58;17.90;99.90
45339;DHT22;31071;51.478;5.710;2023-10-13T07:25:32;18.00;99.90
45339;DHT22;31071;51.478;5.710;2023-10-13T07:28:01;18.00;99.90
45339;DHT22;31071;51.478;5.710;2023-10-13T07:30:29;18.00;99.90
45339;DHT22;31071;51.478;5.710;2023-10-13T07:32:56;18.00;99.90
45339;DHT22;31071;51.478;5.710;2023-10-13T07:35:25;18.00;99.90
45339;DHT22;31071;51.478;5.710;2023-10-13T07:37:52;18.10;99.90
45339;DHT22;31071;51.478;5.710;2023-10-13T07:40:19;18.60;99.90
45339;DHT22;31071;51.478;5.710;2023-10-13T07:43:08;18.30;99.90
45339;DHT22;31071;51.478;5.710;2023-10-13T07:45:37;18.40;99.90
45339;DHT22;31071;51.478;5.710;2023-10-13T07:48:04;18.40;99.90
45339;DHT22;31071;51.478;5.710;2023-10-13T07:50:47;18.40;99.90
45339;DHT22;31071;51.478;5.710;2023-10-13T07:53:14;18.60;99.90
45339;DHT22;31071;51.478;5.710;2023-10-13T07:55:50;18.60;99.90
45339;DHT22;31071;51.478;5.710;2023-10-13T07:58:28;18.70;99.90
45339;DHT22;31071;51.478;5.710;2023-10-13T08:00:54;19.30;99.90
45339;DHT22;31071;51.478;5.710;2023-10-13T08:03:42;18.90;99.90
45339;DHT22;31071;51.478;5.710;2023-10-13T08:06:12;19.00;99.90
45339;DHT22;31071;51.478;5.710;2023-10-13T08:08:38;19.00;99.90
45339;DHT22;31071;51.478;5.710;2023-10-13T08:11:14;19.20;99.90
45339;DHT22;31071;51.478;5.710;2023-10-13T08:13:51;19.10;99.90
45339;DHT22;31071;51.478;5.710;2023-10-13T08:16:22;19.10;99.90
45339;DHT22;31071;51.478;5.710;2023-10-13T08:18:52;19.10;99.90
45339;DHT22;31071;51.478;5.710;2023-10-13T08:21:18;19.80;99.90
45339;DHT22;31071;51.478;5.710;2023-10-13T08:23:57;19.50;99.90
45339;DHT22;31071;51.478;5.710;2023-10-13T08:26:27;19.10;99.90
45339;DHT22;31071;51.478;5.710;2023-10-13T08:29:00;19.20;99.90
45339;DHT22;31071;51.478;5.710;2023-10-13T08:31:47;19.30;99.90
45339;DHT22;31071;51.478;5.710;2023-10-13T08:34:33;19.60;99.90
45339;DHT22;31071;51.478;5.710;2023-10-13T08:37:14;19.40;99.90
45339;DHT22;31071;51.478;5.710;2023-10-13T08:39:45;19.90;99.90
45339;DHT22;31071;51.478;5.710;2023-10-13T08:42:33;19.60;99.90
45339;DHT22;31071;51.478;5.710;2023-10-13T08:45:18;19.60;99.90
45339;DHT22;31071;51.478;5.710;2023-10-13T08:48:00;19.70;99.90
45339;DHT22;31071;51.478;5.710;2023-10-13T08:50:37;19.70;99.90
45339;DHT22;31071;51.478;5.710;2023-10-13T08:56:04;19.60;99.90
45339;DHT22;31071;51.478;5.710;2023-10-13T08:58:30;19.70;99.90
45339;DHT22;31071;51.478;5.710;2023-10-13T09:01:14;19.90;99.90
45339;DHT22;31071;51.478;5.710;2023-10-13T09:04:12;20.00;99.90
45339;DHT22;31071;51.478;5.710;2023-10-13T09:09:12;20.20;99.90
45339;DHT22;31071;51.478;5.710;2023-10-13T09:11:54;20.10;99.90
45339;DHT22;31071;51.478;5.710;2023-10-13T09:14:40;20.10;99.90
45339;DHT22;31071;51.478;5.710;2023-10-13T09:17:22;20.10;99.90
45339;DHT22;31071;51.478;5.710;2023-10-13T09:20:07;20.10;99.90
45339;DHT22;31071;51.478;5.710;2023-10-13T09:22:53;20.10;99.90
45339;DHT22;31071;51.478;5.710;2023-10-13T09:25:31;20.00;99.90
45339;DHT22;31071;51.478;5.710;2023-10-13T09:28:10;20.10;99.90
45339;DHT22;31071;51.478;5.710;2023-10-13T09:30:54;20.20;99.90
45339;DHT22;31071;51.478;5.710;2023-10-13T09:33:23;20.10;99.90
45339;DHT22;31071;51.478;5.710;2023-10-13T09:36:05;20.30;99.90
45339;DHT22;31071;51.478;5.710;2023-10-13T09:38:34;20.20;99.90
45339;DHT22;31071;51.478;5.710;2023-10-13T09:41:00;20.10;99.90
45339;DHT22;31071;51.478;5.710;2023-10-13T09:43:44;20.20;99.90
45339;DHT22;31071;51.478;5.710;2023-10-13T09:46:10;20.30;99.90
45339;DHT22;31071;51.478;5.710;2023-10-13T09:48:46;20.30;99.90
45339;DHT22;31071;51.478;5.710;2023-10-13T09:51:16;20.40;99.90
45339;DHT22;31071;51.478;5.710;2023-10-13T09:53:52;20.70;99.90
45339;DHT22;31071;51.478;5.710;2023-10-13T09:56:25;20.80;99.90
45339;DHT22;31071;51.478;5.710;2023-10-13T09:59:08;21.00;99.90
45339;DHT22;31071;51.478;5.710;2023-10-13T10:01:40;21.00;99.90
45339;DHT22;31071;51.478;5.710;2023-10-13T10:04:16;20.90;99.90
45339;DHT22;31071;51.478;5.710;2023-10-13T10:06:58;20.90;99.90
45339;DHT22;31071;51.478;5.710;2023-10-13T10:09:33;20.90;99.90
45339;DHT22;31071;51.478;5.710;2023-10-13T10:17:45;21.10;99.90
45339;DHT22;31071;51.478;5.710;2023-10-13T10:20:12;21.70;99.90
45339;DHT22;31071;51.478;5.710;2023-10-13T10:22:58;22.00;99.90
45339;DHT22;31071;51.478;5.710;2023-10-13T10:25:34;21.90;99.90
45339;DHT22;31071;51.478;5.710;2023-10-13T10:28:06;21.70;99.90
45339;DHT22;31071;51.478;5.710;2023-10-13T10:30:37;21.60;99.90
45339;DHT22;31071;51.478;5.710;2023-10-13T10:33:04;21.70;99.90
45339;DHT22;31071;51.478;5.710;2023-10-13T10:35:46;22.20;99.90
45339;DHT22;31071;51.478;5.710;2023-10-13T10:38:18;22.30;99.90
45339;DHT22;31071;51.478;5.710;2023-10-13T10:40:58;22.20;99.90
45339;DHT22;31071;51.478;5.710;2023-10-13T10:43:26;22.10;99.90
45339;DHT22;31071;51.478;5.710;2023-10-13T10:45:53;22.30;99.90
45339;DHT22;31071;51.478;5.710;2023-10-13T10:48:25;22.30;99.90
45339;DHT22;31071;51.478;5.710;2023-10-13T10:50:58;22.10;99.90
45339;DHT22;31071;51.478;5.710;2023-10-13T10:57:14;24.40;99.90
45339;DHT22;31071;51.478;5.710;2023-10-13T10:59:46;21.80;99.90
45339;DHT22;31071;51.478;5.710;2023-10-13T11:02:11;22.00;99.90
45339;DHT22;31071;51.478;5.710;2023-10-13T11:04:52;22.30;99.90
45339;DHT22;31071;51.478;5.710;2023-10-13T11:07:25;21.80;99.90
45339;DHT22;31071;51.478;5.710;2023-10-13T11:09:53;22.30;99.90
45339;DHT22;31071;51.478;5.710;2023-10-13T11:12:22;22.30;99.90
45339;DHT22;31071;51.478;5.710;2023-10-13T11:14:47;22.00;99.90
45339;DHT22;31071;51.478;5.710;2023-10-13T11:17:22;22.30;99.90
45339;DHT22;31071;51.478;5.710;2023-10-13T11:19:54;22.10;99.90
45339;DHT22;31071;51.478;5.710;2023-10-13T11:22:22;22.00;99.90
45339;DHT22;31071;51.478;5.710;2023-10-13T11:25:08;22.00;99.90
45339;DHT22;31071;51.478;5.710;2023-10-13T11:27:42;22.20;99.90
45339;DHT22;31071;51.478;5.710;2023-10-13T11:30:19;22.70;99.90
45339;DHT22;31071;51.478;5.710;2023-10-13T11:33:04;22.70;99.90
45339;DHT22;31071;51.478;5.710;2023-10-13T11:38:15;22.60;99.90
45339;DHT22;31071;51.478;5.710;2023-10-13T11:40:51;22.60;99.90
45339;DHT22;31071;51.478;5.710;2023-10-13T11:43:28;22.70;99.90
45339;DHT22;31071;51.478;5.710;2023-10-13T11:45:57;22.70;99.90
45339;DHT22;31071;51.478;5.710;2023-10-13T11:48:35;22.90;99.90
45339;DHT22;31071;51.478;5.710;2023-10-13T11:51:05;22.80;99.90
45339;DHT22;31071;51.478;5.710;2023-10-13T11:53:34;22.60;99.90
45339;DHT22;31071;51.478;5.710;2023-10-13T11:56:01;23.40;99.90
45339;DHT22;31071;51.478;5.710;2023-10-13T11:58:27;22.70;99.90
45339;DHT22;31071;51.478;5.710;2023-10-13T12:00:55;22.70;99.90
45339;DHT22;31071;51.478;5.710;2023-10-13T12:03:47;22.50;99.90
45339;DHT22;31071;51.478;5.710;2023-10-13T12:06:32;22.70;99.90
45339;DHT22;31071;51.478;5.710;2023-10-13T12:09:09;22.80;99.90
45339;DHT22;31071;51.478;5.710;2023-10-13T12:11:42;22.70;99.90
45339;DHT22;31071;51.478;5.710;2023-10-13T12:14:13;22.90;99.90
45339;DHT22;31071;51.478;5.710;2023-10-13T12:16:43;23.10;99.90
45339;DHT22;31071;51.478;5.710;2023-10-13T12:19:23;23.80;99.90
45339;DHT22;31071;51.478;5.710;2023-10-13T12:21:50;23.40;99.90
45339;DHT22;31071;51.478;5.710;2023-10-13T12:24:23;23.50;99.90
45339;DHT22;31071;51.478;5.710;2023-10-13T12:27:07;22.10;99.90
45339;DHT22;31071;51.478;5.710;2023-10-13T12:29:49;23.80;99.90
45339;DHT22;31071;51.478;5.710;2023-10-13T12:32:17;23.90;99.90
45339;DHT22;31071;51.478;5.710;2023-10-13T12:34:56;23.70;99.90
45339;DHT22;31071;51.478;5.710;2023-10-13T12:37:29;23.80;99.90
45339;DHT22;31071;51.478;5.710;2023-10-13T12:40:08;23.70;99.90
45339;DHT22;31071;51.478;5.710;2023-10-13T12:42:53;23.60;99.90
45339;DHT22;31071;51.478;5.710;2023-10-13T12:45:45;23.60;99.90
45339;DHT22;31071;51.478;5.710;2023-10-13T12:48:30;23.50;99.90
45339;DHT22;31071;51.478;5.710;2023-10-13T12:51:16;23.50;99.90
45339;DHT22;31071;51.478;5.710;2023-10-13T12:53:55;23.60;99.90
45339;DHT22;31071;51.478;5.710;2023-10-13T12:56:21;23.50;99.90
45339;DHT22;31071;51.478;5.710;2023-10-13T12:58:54;24.10;99.90
45339;DHT22;31071;51.478;5.710;2023-10-13T13:01:24;23.20;99.90
45339;DHT22;31071;51.478;5.710;2023-10-13T13:03:52;23.10;99.90
45339;DHT22;31071;51.478;5.710;2023-10-13T13:06:26;23.10;99.90
45339;DHT22;31071;51.478;5.710;2023-10-13T13:08:55;23.70;99.90
45339;DHT22;31071;51.478;5.710;2023-10-13T13:11:22;23.00;99.90
45339;DHT22;31071;51.478;5.710;2023-10-13T13:13:49;23.00;99.90
45339;DHT22;31071;51.478;5.710;2023-10-13T13:16:15;23.00;99.90
45339;DHT22;31071;51.478;5.710;2023-10-13T13:18:47;20.90;99.70
45339;DHT22;31071;51.478;5.710;2023-10-13T13:21:12;22.10;99.50
45339;DHT22;31071;51.478;5.710;2023-10-13T13:23:54;22.90;99.90
45339;DHT22;31071;51.478;5.710;2023-10-13T13:26:22;23.10;99.90
45339;DHT22;31071;51.478;5.710;2023-10-13T13:28:50;23.10;99.80
45339;DHT22;31071;51.478;5.710;2023-10-13T13:31:21;23.10;99.80
45339;DHT22;31071;51.478;5.710;2023-10-13T13:33:55;23.20;99.60
45339;DHT22;31071;51.478;5.710;2023-10-13T13:36:21;23.30;99.90
45339;DHT22;31071;51.478;5.710;2023-10-13T13:38:48;23.10;99.50
45339;DHT22;31071;51.478;5.710;2023-10-13T13:41:21;23.10;99.60
45339;DHT22;31071;51.478;5.710;2023-10-13T13:43:49;22.70;99.40
45339;DHT22;31071;51.478;5.710;2023-10-13T13:46:17;23.10;99.90
45339;DHT22;31071;51.478;5.710;2023-10-13T13:48:45;23.10;99.60
45339;DHT22;31071;51.478;5.710;2023-10-13T13:51:13;22.90;99.70
45339;DHT22;31071;51.478;5.710;2023-10-13T13:53:46;23.10;99.80
45339;DHT22;31071;51.478;5.710;2023-10-13T13:56:16;22.90;99.90
45339;DHT22;31071;51.478;5.710;2023-10-13T13:58:47;22.80;99.90
45339;DHT22;31071;51.478;5.710;2023-10-13T14:01:14;22.80;99.90
45339;DHT22;31071;51.478;5.710;2023-10-13T14:03:45;22.90;99.90
45339;DHT22;31071;51.478;5.710;2023-10-13T14:06:12;22.90;99.70
45339;DHT22;31071;51.478;5.710;2023-10-13T14:08:47;22.90;99.70
45339;DHT22;31071;51.478;5.710;2023-10-13T14:11:20;22.80;99.30
45339;DHT22;31071;51.478;5.710;2023-10-13T14:14:13;22.80;99.90
45339;DHT22;31071;51.478;5.710;2023-10-13T14:16:54;22.60;99.90
45339;DHT22;31071;51.478;5.710;2023-10-13T14:19:29;22.70;99.90
45339;DHT22;31071;51.478;5.710;2023-10-13T14:21:58;22.60;99.90
45339;DHT22;31071;51.478;5.710;2023-10-13T14:24:25;22.60;99.90
45339;DHT22;31071;51.478;5.710;2023-10-13T14:26:59;22.60;99.90
45339;DHT22;31071;51.478;5.710;2023-10-13T14:29:35;21.20;99.90
45339;DHT22;31071;51.478;5.710;2023-10-13T14:32:12;22.50;99.90
45339;DHT22;31071;51.478;5.710;2023-10-13T14:34:41;22.90;99.90
45339;DHT22;31071;51.478;5.710;2023-10-13T14:37:11;22.60;99.90
45339;DHT22;31071;51.478;5.710;2023-10-13T14:39:48;22.90;99.90
45339;DHT22;31071;51.478;5.710;2023-10-13T14:42:14;22.80;99.90
45339;DHT22;31071;51.478;5.710;2023-10-13T14:44:57;22.70;99.90
45339;DHT22;31071;51.478;5.710;2023-10-13T14:47:26;23.10;99.90
45339;DHT22;31071;51.478;5.710;2023-10-13T14:49:56;22.70;99.90
45339;DHT22;31071;51.478;5.710;2023-10-13T14:52:25;22.90;99.90
45339;DHT22;31071;51.478;5.710;2023-10-13T14:54:51;22.70;99.90
45339;DHT22;31071;51.478;5.710;2023-10-13T14:57:21;22.80;99.90
45339;DHT22;31071;51.478;5.710;2023-10-13T14:59:54;22.70;99.90
45339;DHT22;31071;51.478;5.710;2023-10-13T15:02:21;22.70;99.90
45339;DHT22;31071;51.478;5.710;2023-10-13T15:04:47;23.00;99.90
45339;DHT22;31071;51.478;5.710;2023-10-13T15:07:16;22.70;99.90
45339;DHT22;31071;51.478;5.710;2023-10-13T15:09:47;22.70;99.90
45339;DHT22;31071;51.478;5.710;2023-10-13T15:12:13;22.50;99.90
45339;DHT22;31071;51.478;5.710;2023-10-13T15:14:42;22.30;99.90
45339;DHT22;31071;51.478;5.710;2023-10-13T15:17:09;21.80;99.90
45339;DHT22;31071;51.478;5.710;2023-10-13T15:19:36;22.30;99.90
45339;DHT22;31071;51.478;5.710;2023-10-13T15:22:04;22.30;99.90
45339;DHT22;31071;51.478;5.710;2023-10-13T15:24:34;22.40;99.90
45339;DHT22;31071;51.478;5.710;2023-10-13T15:27:10;22.40;99.90
45339;DHT22;31071;51.478;5.710;2023-10-13T15:29:36;22.30;99.90
45339;DHT22;31071;51.478;5.710;2023-10-13T15:32:02;22.80;99.90
45339;DHT22;31071;51.478;5.710;2023-10-13T15:34:28;21.90;99.90
45339;DHT22;31071;51.478;5.710;2023-10-13T15:36:55;22.00;99.90
45339;DHT22;31071;51.478;5.710;2023-10-13T15:39:22;22.00;99.90
45339;DHT22;31071;51.478;5.710;2023-10-13T15:41:58;21.80;99.90
45339;DHT22;31071;51.478;5.710;2023-10-13T15:44:27;22.00;99.90
45339;DHT22;31071;51.478;5.710;2023-10-13T15:46:59;21.50;99.90
45339;DHT22;31071;51.478;5.710;2023-10-13T15:49:30;21.30;99.90
45339;DHT22;31071;51.478;5.710;2023-10-13T15:52:00;21.40;99.90
45339;DHT22;31071;51.478;5.710;2023-10-13T15:54:28;21.40;99.90
45339;DHT22;31071;51.478;5.710;2023-10-13T16:00:03;21.10;99.90
45339;DHT22;31071;51.478;5.710;2023-10-13T16:02:52;21.20;99.90
45339;DHT22;31071;51.478;5.710;2023-10-13T16:05:20;21.60;99.90
45339;DHT22;31071;51.478;5.710;2023-10-13T16:07:52;21.10;99.90
45339;DHT22;31071;51.478;5.710;2023-10-13T16:10:21;21.00;99.90
45339;DHT22;31071;51.478;5.710;2023-10-13T16:12:46;21.80;99.90
45339;DHT22;31071;51.478;5.710;2023-10-13T16:15:12;20.80;99.90
45339;DHT22;31071;51.478;5.710;2023-10-13T16:17:41;20.70;99.90
45339;DHT22;31071;51.478;5.710;2023-10-13T16:20:08;20.90;99.90
45339;DHT22;31071;51.478;5.710;2023-10-13T16:22:44;20.50;99.90
45339;DHT22;31071;51.478;5.710;2023-10-13T16:25:14;20.40;99.90
45339;DHT22;31071;51.478;5.710;2023-10-13T16:27:43;20.30;99.90
45339;DHT22;31071;51.478;5.710;2023-10-13T16:30:10;20.30;99.90
45339;DHT22;31071;51.478;5.710;2023-10-13T16:32:43;20.20;99.90
45339;DHT22;31071;51.478;5.710;2023-10-13T16:35:20;20.10;99.90
45339;DHT22;31071;51.478;5.710;2023-10-13T16:37:48;20.20;99.90
45339;DHT22;31071;51.478;5.710;2023-10-13T16:40:20;20.20;99.90
45339;DHT22;31071;51.478;5.710;2023-10-13T16:42:47;20.20;99.90
45339;DHT22;31071;51.478;5.710;2023-10-13T16:45:13;20.10;99.90
45339;DHT22;31071;51.478;5.710;2023-10-13T16:47:50;19.30;99.90
45339;DHT22;31071;51.478;5.710;2023-10-13T16:50:16;20.10;99.90
45339;DHT22;31071;51.478;5.710;2023-10-13T16:52:45;21.00;99.90
45339;DHT22;31071;51.478;5.710;2023-10-13T16:55:15;20.20;99.90
45339;DHT22;31071;51.478;5.710;2023-10-13T16:57:44;20.20;99.90